CYTS

Timmins Airport

Timmins, , Canada
TAF CYTS 150738Z 1508/1520 17010KT P6SM FEW020 BKN100 TEMPO 1508/1512 5SM -SN BKN020 OVC100 FM151200 18012KT 6SM -SN OVC025 TEMPO 1512/1520 2SM -SN OVC015 BECMG 1514/1516 19012G22KT RMK NXT FCST BY 151400Z
Issued Valid From Valid To
Nov-15 @ 07:38 UTC
(5 hours ago)
Nov-15 @ 08:00 UTC
(5 hours ago)
Nov-15 @ 20:00 UTC
(in 7 hours)
Expired Click to View Nov-15 @ 08:00 to Nov-15 @ 12:00
TAF CYTS 150738Z 1508/1520 17010KT P6SM FEW020 BKN100
Wind Visibility Clouds
170° at 10 knots Greater than 6 miles
  • Few at 2,000' AGL
  • Broken at 10,000' AGL
Expired Click to View Nov-15 @ 08:00 to Nov-15 @ 12:00
TEMPO 1508/1512 5SM -SN BKN020 OVC100
Visibility Clouds Conditions
5 miles
  • Broken at 2,000' AGL
  • Overcast at 10,000' AGL
  • Light Snow
From Nov-15 @ 12:00 to Nov-15 @ 14:00
FM151200 18012KT 6SM -SN OVC025
Wind Visibility Clouds Conditions
180° at 12 knots 6 miles
  • Overcast at 2,500' AGL
  • Light Snow
Temporary Nov-15 @ 12:00 to Nov-15 @ 20:00
TEMPO 1512/1520 2SM -SN OVC015
Visibility Clouds Conditions
2 miles
  • Overcast at 1,500' AGL
  • Light Snow
Becoming Nov-15 @ 14:00 to Nov-15 @ 20:00
BECMG 1514/1516 19012G22KT RMK NXT FCST BY 151400Z
Wind Visibility Clouds Conditions
190° at 12 knots
 Gusting to 22 knots
6 miles
  • Overcast at 2,500' AGL
  • Light Snow
TAF CYTS 150738Z 1508/1520 17010KT P6SM FEW020 BKN100 TEMPO 1508/1512 5SM -SN BKN020 OVC100 FM151200 18012KT 6SM -SN OVC025 TEMPO 1512/1520 2SM -SN OVC015 BECMG 1514/1516 19012G22KT RMK NXT FCST BY 151400Z
Issued Nov-15 @ 07:38 UTC
(5 hours ago)
Valid From Nov-15 @ 08:00 UTC
(5 hours ago)
Valid To Nov-15 @ 20:00 UTC
(in 7 hours)
Nov-15 @ 08:00 - Nov-15 @ 12:00
Wind Visibility
170° at 10 knots Greater than 6 miles
Clouds
  • Few at 2,000' AGL
  • Broken at 10,000' AGL
Nov-15 @ 08:00 - Nov-15 @ 12:00
Clouds
  • Broken at 2,000' AGL
  • Overcast at 10,000' AGL
Conditions
  • Light Snow
From Nov-15 @ 12:00 - Nov-15 @ 14:00
Wind Visibility
180° at 12 knots 6 miles
Clouds
  • Overcast at 2,500' AGL
Conditions
  • Light Snow
Temporary Nov-15 @ 12:00 - Nov-15 @ 20:00
Clouds
  • Overcast at 1,500' AGL
Conditions
  • Light Snow
Becoming Nov-15 @ 14:00 - Nov-15 @ 20:00
Wind Visibility
190° at 12 knots
 Gusting to 22 knots
6 miles
Clouds
  • Overcast at 2,500' AGL
Conditions
  • Light Snow